Time;durP1;ratioP1;P1;durP2;ratioP2;P2;SDS_P1;SDS_P2;PMS_P1;PMS_P2;Temp;Humidity;BMP_temperature;BMP_pressure;BME280_temperature;BME280_humidity;BME280_pressure;Samples;Min_cycle;Max_cycle;Signal;HPM_P1;HPM_P2
2023/10/12 00:02:09;;;;;;;4.90;1.60;;;13.50;99.90;;;;;;5030306;28;20024;-84
2023/10/12 00:05:00;;;;;;;6.60;1.20;;;13.50;99.90;;;;;;5034119;28;20369;-85
2023/10/12 00:07:38;;;;;;;8.88;1.65;;;13.50;99.90;;;;;;5033390;28;20057;-86
2023/10/12 00:12:44;;;;;;;8.48;1.48;;;13.40;99.90;;;;;;5030464;28;20022;-86
2023/10/12 00:17:46;;;;;;;4.22;1.45;;;13.20;99.90;;;;;;5032054;28;20123;-85
2023/10/12 00:20:21;;;;;;;9.68;2.25;;;13.10;99.90;;;;;;5032441;28;20473;-84
2023/10/12 00:22:47;;;;;;;8.57;1.50;;;13.10;99.90;;;;;;5031848;28;20017;-84
2023/10/12 00:25:16;;;;;;;7.10;2.53;;;12.90;99.90;;;;;;5034904;28;20116;-83
2023/10/12 00:27:47;;;;;;;6.25;1.95;;;12.90;99.90;;;;;;5037794;28;20071;-84
2023/10/12 00:30:14;;;;;;;7.07;2.05;;;12.80;99.90;;;;;;5036580;28;20024;-85
2023/10/12 00:32:41;;;;;;;10.05;2.30;;;12.80;99.90;;;;;;5036106;28;20010;-85
2023/10/12 00:35:10;;;;;;;14.07;2.13;;;12.70;99.90;;;;;;5048469;28;20017;-89
2023/10/12 00:37:37;;;;;;;8.45;2.20;;;12.70;99.90;;;;;;5056720;28;20016;-87
2023/10/12 00:40:22;;;;;;;6.72;1.88;;;12.60;99.90;;;;;;5047408;28;20028;-85
2023/10/12 00:42:51;;;;;;;5.28;1.45;;;12.50;99.90;;;;;;5041949;28;20014;-84
2023/10/12 00:45:27;;;;;;;10.85;1.85;;;12.50;99.90;;;;;;5039673;28;20544;-85
2023/10/12 00:47:53;;;;;;;6.20;2.20;;;12.50;99.90;;;;;;5040554;28;20461;-86
2023/10/12 00:50:19;;;;;;;7.07;1.50;;;12.40;99.90;;;;;;5039669;28;20022;-85
2023/10/12 00:52:55;;;;;;;6.10;1.73;;;12.40;99.90;;;;;;5042410;28;20025;-85
2023/10/12 00:55:23;;;;;;;6.57;1.77;;;12.40;99.90;;;;;;5038795;28;20028;-85
2023/10/12 00:57:50;;;;;;;10.45;2.45;;;12.40;99.90;;;;;;5048457;28;20034;-86
2023/10/12 01:00:18;;;;;;;6.38;1.73;;;12.40;99.90;;;;;;5034376;28;20029;-84
2023/10/12 01:03:06;;;;;;;12.48;2.25;;;12.40;99.90;;;;;;5033889;28;20473;-84
2023/10/12 01:05:35;;;;;;;9.68;2.05;;;12.30;99.90;;;;;;5032885;28;20017;-85
2023/10/12 01:08:03;;;;;;;6.38;2.10;;;12.30;99.90;;;;;;5036121;28;20048;-84
2023/10/12 01:10:31;;;;;;;6.80;1.92;;;12.30;99.90;;;;;;5032044;28;20018;-84
2023/10/12 01:12:57;;;;;;;5.43;1.85;;;12.30;99.90;;;;;;5034682;28;20087;-84
2023/10/12 01:15:28;;;;;;;6.85;1.25;;;12.30;99.90;;;;;;5035285;28;20498;-84
2023/10/12 01:17:53;;;;;;;8.10;1.75;;;12.30;99.90;;;;;;5038636;28;20025;-84
2023/10/12 01:20:26;;;;;;;6.57;1.45;;;12.20;99.90;;;;;;5031621;28;20032;-84
2023/10/12 01:22:57;;;;;;;7.25;1.92;;;12.20;99.90;;;;;;5032741;28;20418;-84
2023/10/12 01:25:28;;;;;;;4.75;1.88;;;12.20;99.90;;;;;;5033743;28;20411;-84
2023/10/12 01:27:55;;;;;;;7.30;1.35;;;12.20;99.90;;;;;;5036640;28;20020;-84
2023/10/12 01:30:23;;;;;;;6.22;1.85;;;12.20;99.90;;;;;;5033230;28;20083;-85
2023/10/12 01:32:58;;;;;;;3.85;1.00;;;12.20;99.90;;;;;;5033734;28;20477;-84
2023/10/12 01:35:30;;;;;;;11.40;2.50;;;12.20;99.90;;;;;;5032130;28;20025;-84
2023/10/12 01:38:00;;;;;;;10.90;1.25;;;12.30;99.90;;;;;;5032174;28;20014;-84
2023/10/12 01:40:27;;;;;;;9.38;1.38;;;12.30;99.90;;;;;;5035297;28;20017;-83
2023/10/12 01:42:56;;;;;;;7.10;1.73;;;12.30;99.90;;;;;;5031584;28;20017;-84
2023/10/12 01:47:54;;;;;;;2.55;0.98;;;12.20;99.90;;;;;;5031463;28;20104;-84
2023/10/12 01:50:20;;;;;;;8.27;1.50;;;12.20;99.90;;;;;;5030981;28;20026;-83
2023/10/12 01:52:47;;;;;;;4.38;1.20;;;12.20;99.90;;;;;;5031800;28;20326;-85
2023/10/12 01:55:17;;;;;;;6.22;1.73;;;12.20;99.90;;;;;;5029704;28;20018;-83
2023/10/12 01:57:53;;;;;;;6.57;1.70;;;12.10;99.90;;;;;;5032211;28;20021;-83
2023/10/12 02:00:25;;;;;;;5.05;1.52;;;12.10;99.90;;;;;;5029966;28;20096;-84
2023/10/12 02:03:00;;;;;;;5.35;1.80;;;12.10;99.90;;;;;;5029922;28;20017;-84
2023/10/12 02:05:29;;;;;;;9.23;2.10;;;12.10;99.90;;;;;;5030723;28;20017;-83
2023/10/12 02:07:56;;;;;;;5.68;1.60;;;12.10;99.90;;;;;;5031770;28;20029;-83
2023/10/12 02:10:25;;;;;;;5.65;1.35;;;12.10;99.90;;;;;;5032804;28;20429;-83
2023/10/12 02:12:54;;;;;;;6.57;1.75;;;12.00;99.90;;;;;;5031795;28;20014;-86
2023/10/12 02:15:21;;;;;;;7.03;1.85;;;12.00;99.90;;;;;;5033026;28;20020;-84
2023/10/12 02:17:50;;;;;;;3.67;1.52;;;12.00;99.90;;;;;;5031116;28;20017;-83
2023/10/12 02:20:18;;;;;;;5.25;1.05;;;11.90;99.90;;;;;;5030865;28;20026;-83
2023/10/12 02:22:44;;;;;;;8.93;1.67;;;11.90;99.90;;;;;;5031130;28;20018;-84
2023/10/12 02:27:42;;;;;;;3.40;1.17;;;11.90;99.90;;;;;;5031729;28;20029;-84
2023/10/12 02:30:14;;;;;;;5.50;1.40;;;11.90;99.90;;;;;;5029780;28;20021;-84
2023/10/12 02:32:48;;;;;;;8.45;1.40;;;11.90;99.90;;;;;;5031913;28;20540;-83
2023/10/12 02:35:16;;;;;;;6.93;1.80;;;11.90;99.90;;;;;;5030404;28;20389;-83
2023/10/12 02:37:46;;;;;;;7.28;1.70;;;11.90;99.90;;;;;;5029869;28;20028;-84
2023/10/12 02:40:11;;;;;;;6.40;1.77;;;11.80;99.90;;;;;;5029912;28;20233;-83
2023/10/12 02:42:41;;;;;;;4.07;1.55;;;11.80;99.90;;;;;;5030017;28;20328;-83
2023/10/12 02:47:42;;;;;;;6.57;1.13;;;11.80;99.90;;;;;;5031886;28;20079;-85
2023/10/12 02:52:43;;;;;;;6.47;1.50;;;11.70;99.90;;;;;;5031473;28;20017;-83
2023/10/12 02:57:59;;;;;;;7.53;1.95;;;11.70;99.90;;;;;;5036312;28;20025;-84
2023/10/12 03:00:35;;;;;;;2.75;1.35;;;11.70;99.90;;;;;;5037605;28;20048;-84
2023/10/12 03:03:17;;;;;;;2.08;1.30;;;11.70;99.90;;;;;;5034834;28;20034;-83
2023/10/12 03:05:47;;;;;;;5.53;1.98;;;11.70;99.90;;;;;;5051416;28;20029;-84
2023/10/12 03:08:17;;;;;;;6.10;1.63;;;11.70;99.90;;;;;;5030837;28;20017;-83
2023/10/12 03:13:54;;;;;;;6.30;1.45;;;11.70;99.90;;;;;;5038283;28;20034;-83
2023/10/12 03:16:22;;;;;;;8.73;2.55;;;11.70;99.90;;;;;;5029674;28;20052;-83
2023/10/12 03:18:57;;;;;;;4.90;1.80;;;11.70;99.90;;;;;;5030209;28;20032;-86
2023/10/12 03:21:23;;;;;;;6.10;1.65;;;11.70;99.90;;;;;;5037036;28;20122;-84
2023/10/12 03:23:48;;;;;;;8.30;1.60;;;11.60;99.90;;;;;;5033257;28;20021;-84
2023/10/12 03:26:18;;;;;;;6.60;1.67;;;11.60;99.90;;;;;;5035504;28;20108;-83
2023/10/12 03:28:45;;;;;;;5.88;1.42;;;11.60;99.90;;;;;;5036977;28;20025;-82
2023/10/12 03:31:15;;;;;;;11.98;2.58;;;11.60;99.90;;;;;;5037734;28;20052;-83
2023/10/12 03:33:46;;;;;;;6.85;1.65;;;11.50;99.90;;;;;;5037325;28;20021;-83
2023/10/12 03:36:22;;;;;;;7.00;2.20;;;11.50;99.90;;;;;;5036325;28;20525;-83
2023/10/12 03:39:06;;;;;;;;;;;11.50;99.90;;;;;;5037194;28;20120;-83
2023/10/12 03:41:46;;;;;;;6.63;1.45;;;11.50;99.90;;;;;;5047175;28;19912;-82
2023/10/12 03:44:19;;;;;;;4.82;1.38;;;11.50;99.90;;;;;;5037013;28;20024;-85
2023/10/12 03:46:56;;;;;;;4.63;1.58;;;11.50;99.90;;;;;;5035458;28;20025;-83
2023/10/12 03:52:13;;;;;;;4.07;1.20;;;11.40;99.90;;;;;;5036215;28;20378;-83
2023/10/12 03:54:55;;;;;;;7.55;1.52;;;11.40;99.90;;;;;;5033455;28;20018;-85
2023/10/12 03:57:27;;;;;;;8.00;1.52;;;11.40;99.90;;;;;;5041294;28;20029;-85
2023/10/12 04:00:25;;;;;;;5.03;1.52;;;11.40;99.90;;;;;;5036294;28;20021;-85
2023/10/12 04:05:17;;;;;;;11.98;2.10;;;11.40;99.90;;;;;;5039603;28;20033;-85
2023/10/12 04:13:08;;;;;;;6.72;1.42;;;11.40;99.90;;;;;;5039566;28;20111;-85
2023/10/12 04:16:05;;;;;;;7.13;1.00;;;11.40;99.90;;;;;;5036034;28;20481;-83
2023/10/12 04:18:28;;;;;;;4.13;1.70;;;11.40;99.90;;;;;;5039458;28;20036;-83
2023/10/12 04:20:57;;;;;;;5.82;2.00;;;11.40;99.90;;;;;;5035869;28;20268;-83
2023/10/12 04:28:55;;;;;;;6.28;1.52;;;11.40;99.90;;;;;;5035307;28;20100;-85
2023/10/12 04:31:33;;;;;;;7.97;1.65;;;11.40;99.90;;;;;;5036119;28;20043;-83
2023/10/12 04:36:43;;;;;;;4.13;1.65;;;11.40;99.90;;;;;;5035730;28;20030;-83
2023/10/12 04:39:25;;;;;;;5.65;1.48;;;11.40;99.90;;;;;;5036635;28;20437;-85
2023/10/12 04:44:35;;;;;;;6.47;1.48;;;11.40;99.90;;;;;;5037063;28;20017;-84
2023/10/12 04:47:06;;;;;;;5.53;1.13;;;11.40;99.90;;;;;;5034728;28;20025;-83
2023/10/12 04:54:49;;;;;;;4.03;1.40;;;11.40;99.90;;;;;;5032669;28;20481;-83
2023/10/12 04:57:16;;;;;;;3.80;1.38;;;11.40;99.90;;;;;;5033942;28;20414;-83
2023/10/12 04:59:43;;;;;;;9.30;1.73;;;11.40;99.90;;;;;;5032524;28;20700;-83
2023/10/12 05:09:37;;;;;;;9.75;1.73;;;11.40;99.90;;;;;;5039837;28;20028;-84
2023/10/12 05:12:03;;;;;;;4.28;1.55;;;11.40;99.90;;;;;;5037188;28;20632;-83
2023/10/12 05:14:30;;;;;;;6.90;1.55;;;11.40;99.90;;;;;;5035125;28;20033;-84
2023/10/12 05:16:55;;;;;;;6.45;1.95;;;11.40;99.90;;;;;;5037248;28;20086;-83
2023/10/12 05:19:21;;;;;;;3.90;1.20;;;11.50;99.90;;;;;;5035971;28;20087;-85
2023/10/12 05:21:46;;;;;;;5.72;1.75;;;11.50;99.90;;;;;;5034467;28;20029;-85
2023/10/12 05:24:12;;;;;;;10.52;1.63;;;11.40;99.90;;;;;;5037292;28;20026;-83
2023/10/12 05:26:38;;;;;;;5.43;1.17;;;11.40;99.90;;;;;;5034034;28;20600;-83
2023/10/12 05:31:58;;;;;;;5.28;1.35;;;11.40;99.90;;;;;;5036126;28;20507;-84
2023/10/12 05:34:34;;;;;;;9.23;1.80;;;11.40;99.90;;;;;;5037490;28;20067;-84
2023/10/12 05:37:18;;;;;;;12.00;1.55;;;11.40;99.90;;;;;;5033385;28;20527;-85
2023/10/12 05:39:47;;;;;;;11.20;1.90;;;11.40;99.90;;;;;;5034738;28;20459;-83
2023/10/12 05:42:15;;;;;;;3.70;1.40;;;11.40;99.90;;;;;;5035190;28;20025;-84
2023/10/12 05:44:42;;;;;;;5.85;1.50;;;11.40;99.90;;;;;;5034507;28;20075;-83
2023/10/12 05:47:11;;;;;;;7.97;2.20;;;11.40;99.90;;;;;;5035794;28;20045;-83
2023/10/12 05:49:41;;;;;;;5.15;1.17;;;11.40;99.90;;;;;;5034871;28;20080;-83
2023/10/12 05:52:08;;;;;;;6.38;1.80;;;11.40;99.90;;;;;;5035590;28;20025;-86
2023/10/12 05:54:34;;;;;;;7.00;1.30;;;11.40;99.90;;;;;;5036246;28;20018;-84
2023/10/12 05:57:18;;;;;;;4.97;1.27;;;11.30;99.90;;;;;;5034959;28;20052;-83
2023/10/12 05:59:45;;;;;;;4.30;1.10;;;11.40;99.90;;;;;;5035164;28;20159;-83
2023/10/12 06:02:10;;;;;;;4.75;1.35;;;11.40;99.90;;;;;;5034101;28;20030;-83
2023/10/12 06:04:36;;;;;;;7.10;0.93;;;11.40;99.90;;;;;;5042459;28;20018;-83
2023/10/12 06:07:02;;;;;;;4.43;1.35;;;11.40;99.90;;;;;;5032857;28;20018;-83
2023/10/12 06:09:35;;;;;;;2.53;1.40;;;11.40;99.90;;;;;;5032290;28;20097;-83
2023/10/12 06:12:13;;;;;;;5.65;1.30;;;11.40;99.90;;;;;;5031761;28;20053;-83
2023/10/12 06:14:39;;;;;;;2.42;1.15;;;11.40;99.90;;;;;;5030099;28;20508;-83
2023/10/12 06:17:06;;;;;;;6.30;1.83;;;11.40;99.90;;;;;;5032162;28;20234;-83
2023/10/12 06:19:34;;;;;;;2.63;0.77;;;11.40;99.90;;;;;;5026581;28;20021;-83
2023/10/12 06:22:13;;;;;;;6.80;1.50;;;11.40;99.90;;;;;;5031953;28;20024;-85
2023/10/12 06:24:44;;;;;;;6.40;1.48;;;11.40;99.90;;;;;;5030513;28;20113;-83
2023/10/12 06:29:45;;;;;;;4.93;1.25;;;11.50;99.90;;;;;;5032371;28;20026;-84
2023/10/12 06:32:17;;;;;;;6.45;1.45;;;11.50;99.90;;;;;;5033688;28;20022;-83
2023/10/12 06:34:43;;;;;;;5.00;1.73;;;11.50;99.90;;;;;;5036022;28;20028;-85
2023/10/12 06:37:49;;;;;;;6.15;1.15;;;11.50;99.90;;;;;;5033448;28;20132;-84
2023/10/12 06:42:44;;;;;;;3.88;1.15;;;11.50;99.90;;;;;;5034509;28;20079;-83
2023/10/12 06:45:15;;;;;;;3.65;1.17;;;11.60;99.90;;;;;;5033004;28;20027;-84
2023/10/12 06:47:41;;;;;;;3.33;1.88;;;11.50;99.90;;;;;;5031045;28;20040;-83
2023/10/12 06:50:14;;;;;;;3.55;1.17;;;11.60;99.90;;;;;;5026922;28;20037;-84
2023/10/12 06:52:41;;;;;;;4.82;1.00;;;11.60;99.90;;;;;;5030377;28;20427;-83
2023/10/12 06:55:08;;;;;;;2.80;1.45;;;11.60;99.90;;;;;;5034363;28;20392;-84
2023/10/12 06:57:42;;;;;;;4.97;1.38;;;11.60;99.90;;;;;;5035662;28;20104;-83
2023/10/12 07:02:34;;;;;;;5.72;1.58;;;11.60;99.90;;;;;;5037215;28;20040;-84
2023/10/12 07:05:03;;;;;;;5.10;1.92;;;11.60;99.90;;;;;;5034318;28;20025;-83
2023/10/12 07:07:36;;;;;;;2.63;1.40;;;11.60;99.90;;;;;;5033100;28;20247;-83
2023/10/12 07:12:48;;;;;;;5.50;1.73;;;11.60;99.90;;;;;;5034079;28;20159;-83
2023/10/12 07:15:22;;;;;;;7.45;1.63;;;11.60;99.90;;;;;;5035838;28;20437;-83
2023/10/12 07:17:51;;;;;;;3.35;1.05;;;11.60;99.90;;;;;;5032118;28;20184;-84
2023/10/12 07:20:40;;;;;;;9.05;1.90;;;11.60;99.90;;;;;;5033132;28;20022;-83
2023/10/12 07:23:16;;;;;;;8.00;1.88;;;11.60;99.90;;;;;;5031395;28;20179;-83
2023/10/12 07:25:50;;;;;;;9.68;2.00;;;11.60;99.90;;;;;;5031070;28;20099;-83
2023/10/12 07:28:18;;;;;;;8.35;1.58;;;11.60;99.90;;;;;;5030543;28;20025;-83
2023/10/12 07:31:05;;;;;;;7.13;1.83;;;11.60;99.90;;;;;;5032120;28;20025;-83
2023/10/12 07:33:32;;;;;;;3.75;1.10;;;11.60;99.90;;;;;;5036908;28;20030;-83
2023/10/12 07:36:17;;;;;;;6.50;2.15;;;11.70;99.90;;;;;;5032142;28;20029;-83
2023/10/12 07:39:14;;;;;;;3.17;1.30;;;11.60;99.90;;;;;;5032866;28;20111;-83
2023/10/12 07:41:41;;;;;;;5.95;1.52;;;11.70;99.90;;;;;;5037417;28;20040;-82
2023/10/12 07:44:07;;;;;;;4.13;1.40;;;11.70;99.90;;;;;;5040653;28;20133;-84
2023/10/12 07:46:35;;;;;;;6.57;1.48;;;11.70;99.90;;;;;;5036453;28;20457;-82
2023/10/12 07:49:21;;;;;;;4.20;1.42;;;11.70;99.90;;;;;;5033715;28;20116;-84
2023/10/12 07:57:15;;;;;;;3.85;1.27;;;12.00;99.90;;;;;;5032542;28;20048;-85
2023/10/12 08:15:55;;;;;;;6.45;1.20;;;12.20;99.90;;;;;;5033993;28;20091;-82
2023/10/12 08:21:41;;;;;;;9.52;1.58;;;12.20;99.90;;;;;;5007591;28;20037;-82
2023/10/12 08:24:22;;;;;;;7.05;1.83;;;12.30;99.90;;;;;;5008274;28;20117;-83
2023/10/12 08:26:49;;;;;;;7.20;1.67;;;12.40;99.90;;;;;;5014758;28;20112;-83
2023/10/12 08:31:47;;;;;;;7.65;1.73;;;12.50;99.90;;;;;;5035781;28;20089;-82
2023/10/12 08:37:17;;;;;;;6.82;1.40;;;12.60;99.90;;;;;;5034409;28;20025;-82
2023/10/12 08:39:51;;;;;;;7.03;1.15;;;12.70;99.90;;;;;;5036239;28;20039;-82
2023/10/12 08:45:09;;;;;;;4.63;1.13;;;12.80;99.90;;;;;;5034227;28;20066;-82
2023/10/12 08:50:05;;;;;;;8.32;2.25;;;13.00;99.90;;;;;;5035231;28;20064;-82
2023/10/12 08:52:32;;;;;;;7.03;1.77;;;13.00;99.90;;;;;;5033921;28;20022;-82
2023/10/12 08:55:11;;;;;;;5.68;1.55;;;13.00;99.90;;;;;;5035405;28;20026;-84
2023/10/12 08:58:18;;;;;;;4.97;1.55;;;13.00;99.90;;;;;;5031887;28;20080;-82
2023/10/12 09:03:25;;;;;;;8.90;1.52;;;13.00;99.90;;;;;;5032330;28;20278;-82
2023/10/12 09:05:51;;;;;;;6.00;1.42;;;13.00;99.90;;;;;;5032036;28;20036;-82
2023/10/12 09:10:49;;;;;;;9.38;1.30;;;13.00;99.90;;;;;;5032828;28;20099;-82
2023/10/12 09:13:36;;;;;;;11.05;1.65;;;13.00;99.90;;;;;;5032186;28;20540;-82
2023/10/12 09:16:27;;;;;;;2.65;0.90;;;13.00;99.90;;;;;;5031199;28;20039;-81
2023/10/12 09:18:59;;;;;;;4.00;1.65;;;13.00;99.90;;;;;;5036065;28;20025;-82
2023/10/12 09:21:38;;;;;;;7.75;1.63;;;13.00;99.90;;;;;;5035284;28;20033;-82
2023/10/12 09:24:06;;;;;;;6.70;1.40;;;13.00;99.90;;;;;;5038534;28;20021;-81
2023/10/12 09:26:37;;;;;;;6.95;1.85;;;13.10;99.90;;;;;;5035950;28;20020;-82
2023/10/12 09:29:09;;;;;;;8.50;1.67;;;13.10;99.90;;;;;;5035479;28;20018;-81
2023/10/12 09:36:43;;;;;;;6.22;1.30;;;13.20;99.90;;;;;;5037125;28;20515;-82
2023/10/12 09:39:24;;;;;;;6.20;1.70;;;13.20;99.90;;;;;;5036188;28;20017;-82
2023/10/12 09:41:59;;;;;;;4.53;1.30;;;13.20;99.90;;;;;;5034424;28;20025;-83
2023/10/12 09:44:27;;;;;;;7.32;1.67;;;13.20;99.90;;;;;;5033136;28;20072;-82
2023/10/12 09:46:56;;;;;;;8.15;1.40;;;13.20;99.90;;;;;;5033399;28;20028;-82
2023/10/12 09:49:27;;;;;;;4.18;1.60;;;13.30;99.90;;;;;;5035615;28;20566;-81
2023/10/12 09:52:07;;;;;;;5.35;1.40;;;13.30;99.90;;;;;;5038423;28;20023;-81
2023/10/12 09:55:14;;;;;;;4.22;1.50;;;13.40;99.90;;;;;;5037944;28;20047;-81
2023/10/12 09:57:49;;;;;;;6.30;1.33;;;13.50;99.90;;;;;;5048380;28;20064;-82
2023/10/12 10:01:07;;;;;;;7.25;1.30;;;13.60;99.90;;;;;;5054211;28;20034;-83
2023/10/12 10:03:04;;;;;;;4.50;1.00;;;13.60;99.90;;;;;;5035274;28;20029;-82
2023/10/12 10:08:22;;;;;;;2.40;1.02;;;13.60;99.90;;;;;;5043740;28;20032;-84
2023/10/12 10:10:57;;;;;;;6.75;1.45;;;13.70;99.90;;;;;;5039995;28;20025;-82
2023/10/12 10:14:03;;;;;;;4.43;1.30;;;13.70;99.90;;;;;;5035445;28;20022;-81
2023/10/12 10:16:37;;;;;;;3.03;1.08;;;13.70;99.90;;;;;;4964400;28;20548;-82
2023/10/12 10:19:13;;;;;;;7.82;1.20;;;13.70;99.90;;;;;;4973360;28;20050;-81
2023/10/12 10:21:49;;;;;;;;;;;13.70;99.90;;;;;;5010107;28;20116;-82
2023/10/12 10:24:19;;;;;;;4.70;1.85;;;13.70;99.90;;;;;;5033247;28;19924;-82
2023/10/12 10:26:47;;;;;;;4.40;1.40;;;13.70;99.90;;;;;;5037094;28;20040;-82
2023/10/12 10:29:21;;;;;;;5.35;1.95;;;13.70;99.90;;;;;;5035499;28;20025;-83
2023/10/12 10:31:51;;;;;;;5.47;1.15;;;13.70;99.90;;;;;;5037073;28;20541;-82
2023/10/12 10:34:25;;;;;;;9.48;1.45;;;13.70;99.90;;;;;;5033986;28;20029;-82
2023/10/12 10:36:53;;;;;;;7.53;0.93;;;13.80;99.90;;;;;;5032311;28;20041;-82
2023/10/12 10:41:48;;;;;;;5.82;1.52;;;13.80;99.90;;;;;;5039544;28;20589;-82
2023/10/12 10:44:17;;;;;;;4.30;1.13;;;13.80;99.90;;;;;;5037169;28;20044;-82
2023/10/12 10:47:07;;;;;;;4.32;1.17;;;13.80;99.90;;;;;;5035575;28;20025;-83
2023/10/12 10:49:33;;;;;;;9.10;1.77;;;13.90;99.90;;;;;;5035584;28;20346;-82
2023/10/12 10:54:33;;;;;;;4.60;1.38;;;13.90;99.90;;;;;;5040465;28;20025;-83
2023/10/12 10:56:59;;;;;;;5.15;0.80;;;13.90;99.90;;;;;;5038076;28;20020;-83
2023/10/12 10:59:25;;;;;;;8.68;1.45;;;14.00;99.90;;;;;;5035548;28;20091;-84
2023/10/12 11:01:52;;;;;;;6.18;1.20;;;14.00;99.90;;;;;;5038506;28;20029;-83
2023/10/12 11:04:41;;;;;;;4.90;0.95;;;14.10;99.90;;;;;;5033276;28;20026;-83
2023/10/12 11:07:06;;;;;;;;;;;14.20;99.90;;;;;;5035528;28;20427;-83
2023/10/12 11:12:25;;;;;;;6.55;1.25;;;14.30;99.90;;;;;;5034859;28;20030;-83
2023/10/12 11:15:00;;;;;;;7.53;1.60;;;14.30;99.90;;;;;;5034380;28;20025;-83
2023/10/12 11:17:30;;;;;;;5.95;1.50;;;14.30;99.90;;;;;;5034673;28;20033;-83
2023/10/12 11:20:00;;;;;;;7.40;1.65;;;14.30;99.90;;;;;;5037730;28;20087;-83
2023/10/12 11:22:26;;;;;;;4.35;1.17;;;14.20;99.90;;;;;;5034235;28;20515;-83
2023/10/12 11:24:55;;;;;;;11.52;1.67;;;14.10;99.90;;;;;;5036674;28;20037;-83
2023/10/12 11:27:35;;;;;;;9.55;2.28;;;14.10;99.90;;;;;;5035474;28;20148;-84
2023/10/12 11:30:12;;;;;;;4.72;1.20;;;14.00;99.90;;;;;;5037694;28;20028;-83
2023/10/12 11:32:54;;;;;;;6.20;1.33;;;13.90;99.90;;;;;;5034599;28;20552;-83
2023/10/12 11:35:40;;;;;;;6.00;1.20;;;13.80;99.90;;;;;;5033960;28;20033;-83
2023/10/12 11:38:17;;;;;;;6.38;1.88;;;13.70;99.90;;;;;;5036980;28;20108;-82
2023/10/12 11:40:44;;;;;;;3.40;1.02;;;13.70;99.90;;;;;;5036491;28;20044;-84
2023/10/12 11:43:10;;;;;;;4.80;1.02;;;13.60;99.90;;;;;;5037857;28;20029;-82
2023/10/12 11:45:36;;;;;;;6.18;1.33;;;13.60;99.90;;;;;;5041539;28;20054;-82
2023/10/12 11:48:21;;;;;;;6.88;1.25;;;13.50;99.90;;;;;;5035159;28;20029;-82
2023/10/12 11:50:48;;;;;;;5.05;1.30;;;13.50;99.90;;;;;;5033583;28;20021;-81
2023/10/12 11:53:15;;;;;;;3.95;1.30;;;13.60;99.90;;;;;;5039924;28;20079;-82
2023/10/12 11:55:41;;;;;;;8.70;0.73;;;13.60;99.90;;;;;;5044011;28;20056;-83
2023/10/12 11:58:07;;;;;;;4.93;1.15;;;13.60;99.90;;;;;;5041204;28;20025;-83
2023/10/12 12:00:44;;;;;;;6.60;1.10;;;13.60;99.90;;;;;;5031142;28;20112;-83
2023/10/12 12:03:10;;;;;;;5.35;0.93;;;13.60;99.90;;;;;;5033349;28;20056;-82
2023/10/12 12:05:36;;;;;;;4.70;1.58;;;13.60;99.90;;;;;;5033479;28;20018;-83
2023/10/12 12:08:15;;;;;;;4.32;1.30;;;13.70;99.90;;;;;;5033781;28;20067;-83
2023/10/12 12:10:45;;;;;;;7.93;1.15;;;13.70;99.90;;;;;;5031648;28;20101;-82
2023/10/12 12:13:12;;;;;;;4.95;1.58;;;13.80;99.90;;;;;;5034559;28;20021;-83
2023/10/12 12:15:44;;;;;;;4.43;1.13;;;13.80;99.90;;;;;;5032363;28;20128;-83
2023/10/12 12:18:19;;;;;;;4.65;1.13;;;13.90;99.90;;;;;;5032865;28;20028;-82
2023/10/12 12:20:51;;;;;;;5.90;1.30;;;14.00;99.90;;;;;;5038501;28;20257;-85
2023/10/12 12:23:20;;;;;;;5.68;1.35;;;14.10;99.90;;;;;;5031849;28;20025;-84
2023/10/12 12:25:46;;;;;;;4.22;1.52;;;14.10;99.90;;;;;;5032949;28;20022;-83
2023/10/12 12:28:21;;;;;;;4.28;1.38;;;14.10;99.90;;;;;;5029606;28;20025;-83
2023/10/12 12:30:51;;;;;;;4.10;0.77;;;14.10;99.90;;;;;;5032572;28;20014;-83
2023/10/12 12:33:17;;;;;;;4.78;0.95;;;14.10;99.90;;;;;;5032189;28;20117;-83
2023/10/12 12:35:45;;;;;;;2.55;0.75;;;14.10;99.90;;;;;;5033463;28;20009;-82
2023/10/12 12:40:57;;;;;;;5.60;1.10;;;14.20;99.90;;;;;;5031020;28;20512;-83
2023/10/12 12:43:23;;;;;;;4.18;0.95;;;14.20;99.90;;;;;;5031076;28;20547;-83
2023/10/12 12:45:48;;;;;;;4.85;1.00;;;14.20;99.90;;;;;;5043695;28;20021;-83
2023/10/12 12:48:14;;;;;;;4.38;1.27;;;14.20;99.90;;;;;;5029610;28;20172;-84
2023/10/12 12:50:43;;;;;;;5.10;1.20;;;14.10;99.90;;;;;;5029471;28;20060;-83
2023/10/12 12:53:11;;;;;;;5.05;1.02;;;14.20;99.90;;;;;;5030854;28;20017;-84
2023/10/12 12:55:38;;;;;;;4.07;1.00;;;14.20;99.90;;;;;;5030656;28;20067;-83
2023/10/12 12:58:05;;;;;;;6.45;1.20;;;14.20;99.90;;;;;;5028956;28;20025;-83
2023/10/12 13:00:33;;;;;;;5.50;1.05;;;14.20;99.90;;;;;;5027054;28;20013;-83
2023/10/12 13:03:00;;;;;;;4.32;1.08;;;14.20;99.90;;;;;;5029398;28;20112;-83
2023/10/12 13:05:28;;;;;;;6.78;1.10;;;14.30;99.90;;;;;;5029098;28;20121;-82
2023/10/12 13:07:54;;;;;;;3.42;0.80;;;14.30;99.90;;;;;;5030588;28;20033;-82
2023/10/12 13:10:21;;;;;;;4.78;1.35;;;14.30;99.90;;;;;;5028490;28;20014;-84
2023/10/12 13:12:47;;;;;;;3.05;0.77;;;14.40;99.90;;;;;;5028535;28;20037;-82
2023/10/12 13:15:14;;;;;;;4.63;0.77;;;14.30;99.90;;;;;;5028806;28;20102;-84
2023/10/12 13:17:40;;;;;;;1.67;0.93;;;14.40;99.90;;;;;;5034639;28;20027;-83
2023/10/12 13:20:17;;;;;;;5.57;0.82;;;14.40;99.90;;;;;;5037385;28;20116;-83
2023/10/12 13:22:44;;;;;;;2.95;0.82;;;14.40;99.90;;;;;;5033758;28;20021;-83
2023/10/12 13:25:10;;;;;;;4.40;1.00;;;14.50;99.90;;;;;;5040561;28;20039;-83
2023/10/12 13:27:37;;;;;;;5.70;0.95;;;14.40;99.90;;;;;;5040551;28;20097;-83
2023/10/12 13:30:10;;;;;;;7.60;1.00;;;14.40;99.90;;;;;;5040244;28;20501;-83
2023/10/12 13:32:36;;;;;;;5.07;0.82;;;14.40;99.90;;;;;;5041388;28;20550;-84
2023/10/12 13:35:17;;;;;;;5.47;0.60;;;14.40;99.90;;;;;;5044706;28;20401;-83
2023/10/12 13:37:47;;;;;;;4.95;0.98;;;14.30;99.90;;;;;;5034106;28;20135;-83
2023/10/12 13:40:16;;;;;;;5.15;0.88;;;14.30;99.90;;;;;;5036041;28;20029;-84
2023/10/12 13:42:43;;;;;;;2.15;0.90;;;14.30;99.90;;;;;;5036548;28;20017;-82
2023/10/12 13:45:18;;;;;;;4.38;0.90;;;14.30;99.90;;;;;;5037142;28;20168;-83
2023/10/12 13:47:47;;;;;;;2.20;0.80;;;14.20;99.90;;;;;;5036072;28;20339;-83
2023/10/12 13:50:14;;;;;;;1.38;0.65;;;14.20;99.90;;;;;;5036833;28;20116;-82
2023/10/12 13:52:40;;;;;;;1.45;1.00;;;14.20;99.90;;;;;;5035672;28;20133;-83
2023/10/12 13:55:11;;;;;;;6.53;1.30;;;14.20;99.90;;;;;;5037930;28;20037;-83
2023/10/12 13:57:50;;;;;;;4.20;0.68;;;14.20;99.90;;;;;;5032301;28;20098;-83
2023/10/12 14:00:25;;;;;;;1.67;0.63;;;14.10;99.90;;;;;;5038509;28;20035;-82
2023/10/12 14:02:58;;;;;;;2.90;0.80;;;14.10;99.90;;;;;;5034649;28;20025;-83
2023/10/12 14:05:27;;;;;;;2.05;0.60;;;14.10;99.90;;;;;;5034300;28;20028;-82
2023/10/12 14:07:59;;;;;;;3.63;1.50;;;14.00;99.90;;;;;;5037860;28;20377;-82
2023/10/12 14:10:29;;;;;;;1.95;0.60;;;13.90;99.90;;;;;;5035418;28;20048;-83
2023/10/12 14:12:56;;;;;;;2.70;0.90;;;13.90;99.90;;;;;;5034726;28;20022;-83
2023/10/12 14:15:24;;;;;;;2.97;0.75;;;13.80;99.90;;;;;;5039278;28;20044;-83
2023/10/12 14:17:54;;;;;;;2.72;1.00;;;13.70;99.90;;;;;;5036258;28;20625;-82
2023/10/12 14:20:26;;;;;;;1.83;0.70;;;13.70;99.90;;;;;;5037557;28;20078;-82
2023/10/12 14:22:57;;;;;;;2.38;0.75;;;13.60;99.90;;;;;;5034762;28;20377;-81
2023/10/12 14:25:27;;;;;;;2.13;0.60;;;13.60;99.90;;;;;;5034510;28;20559;-82
2023/10/12 14:27:54;;;;;;;5.30;0.82;;;13.60;99.90;;;;;;5034951;28;20041;-83
2023/10/12 14:30:25;;;;;;;1.73;0.88;;;13.50;99.90;;;;;;5036650;28;20048;-83
2023/10/12 14:32:50;;;;;;;5.68;1.17;;;13.40;99.90;;;;;;5033667;28;20040;-82
2023/10/12 14:35:18;;;;;;;3.20;0.63;;;13.40;99.90;;;;;;5038667;28;20025;-82
2023/10/12 14:37:44;;;;;;;2.70;1.15;;;13.30;99.90;;;;;;5038586;28;20038;-83
2023/10/12 14:40:11;;;;;;;2.15;0.82;;;13.30;99.90;;;;;;5039067;28;20021;-83
2023/10/12 14:42:40;;;;;;;1.08;0.45;;;13.30;99.90;;;;;;5036520;28;20026;-82
2023/10/12 14:45:08;;;;;;;2.08;0.60;;;13.20;99.90;;;;;;5036076;28;20075;-83
2023/10/12 14:47:35;;;;;;;4.57;0.82;;;13.20;99.90;;;;;;5037970;28;20017;-83
2023/10/12 14:50:05;;;;;;;2.55;1.02;;;13.20;99.90;;;;;;5038162;28;20060;-82
2023/10/12 14:52:38;;;;;;;1.27;0.50;;;13.20;99.90;;;;;;5038391;28;20024;-82
2023/10/12 14:55:07;;;;;;;4.90;3.72;;;13.10;99.90;;;;;;5035985;28;20527;-83
2023/10/12 14:57:33;;;;;;;7.60;5.13;;;13.10;99.90;;;;;;5036121;28;20033;-82
2023/10/12 14:59:59;;;;;;;3.97;3.60;;;13.10;99.90;;;;;;5035812;28;20017;-83
2023/10/12 15:02:27;;;;;;;5.20;4.25;;;13.10;99.90;;;;;;5035757;28;20049;-81
2023/10/12 15:04:52;;;;;;;7.50;5.07;;;13.00;99.90;;;;;;5036643;28;20018;-82
2023/10/12 15:07:18;;;;;;;14.60;12.55;;;13.00;99.90;;;;;;5038396;28;20047;-82
2023/10/12 15:09:48;;;;;;;17.00;10.68;;;13.00;99.90;;;;;;5035436;28;20093;-82
2023/10/12 15:12:13;;;;;;;10.43;8.07;;;12.90;99.90;;;;;;5035543;28;20478;-83
2023/10/12 15:14:41;;;;;;;6.57;4.90;;;12.90;99.90;;;;;;5035655;28;20029;-83
2023/10/12 15:17:06;;;;;;;6.10;3.42;;;12.80;99.90;;;;;;5034130;28;20045;-82